Pagina principale
METAR-TAF:

METAR-TAF

Aeroporti :

Aeroporto di Pisa-San Giusto

Pisa, Italia

latitudine: 43-41N, longitudine: 010-23E, altezza: 2 m

Osservazione

Il bollettino è stato emesso 39 minuti fa, alle 00:15 UTC
Vento 2 kt da sud-ovest
Temperature 17°C
Umidità 100%
Pressione 1016 hPa
Visibilità 10 km o più
Poco nuvoloso ad un'altezza di 2000 ft
Nubi sparse ad un'altezza di 7000 ft

METAR: LIRP 280015Z 22002KT 9999 FEW020 SCT070 17/17 Q1016 NOSIG

Ora: 02:54 (00:54 UTC)

Previsione

Il bollettino è stato emesso 1 ora e 54 minuti fa, alle 23:00 UTC
Previsione valida dal 28 alle 00 UTC al 28 alle 24 UTC
Vento 5 kt da direzioni variabili
Visibilità 10 km o più
Nubi sparse ad un'altezza di 2000 ft
Nubi sparse ad un'altezza di 7000 ft
Temporaneamente
dal 28 alle 03 UTC al 28 alle 08 UTC
Visibilità: 5000 m
foschia,

TAF: LIRP 272300Z 2800/2824 VRB05KT 9999 SCT020 SCT070 TEMPO 2803/2808 5000 BR

Osservazioni e previsioni meteorologiche di più di 4000 aeroporti (messaggi METAR e TAF).

Le stazioni disponibili sono rappresentate dai dischi gialli e rossi sulla carta.

Puntare il mouse per vedere il nome della stazione.

Clicca sopra per visualizzare le osservazioni e previsioni meteorologiche.

Per cambiare la mappa : fare clic sui pulsanti verdi con una croce nera per ingrandire, il pulsante verde con un trattino per diminuire, o sulla freccia verde per le mappe adiacenti.


METAR-TAF: